Time;durP1;ratioP1;P1;durP2;ratioP2;P2;SDS_P1;SDS_P2;PMS_P1;PMS_P2;Temp;Humidity;BMP_temperature;BMP_pressure;BME280_temperature;BME280_humidity;BME280_pressure;Samples;Min_cycle;Max_cycle;Signal;HPM_P1;HPM_P2
2021/04/28 00:00:34;;;;;;;9.95;4.30;;;8.50;43.50;;;;;;5003736;28;20501;-70
2021/04/28 00:03:03;;;;;;;8.18;4.82;;;8.50;43.70;;;;;;5005288;28;20034;-69
2021/04/28 00:05:28;;;;;;;6.85;4.57;;;8.40;43.60;;;;;;4993646;28;20137;-70
2021/04/28 00:07:54;;;;;;;7.68;4.45;;;8.40;43.70;;;;;;5005562;28;20134;-70
2021/04/28 00:10:23;;;;;;;8.52;4.47;;;8.40;43.80;;;;;;5006846;28;20393;-69
2021/04/28 00:12:49;;;;;;;6.78;4.32;;;8.30;43.90;;;;;;5003372;28;20447;-70
2021/04/28 00:15:18;;;;;;;6.13;4.13;;;8.30;44.00;;;;;;5007951;28;20038;-70
2021/04/28 00:17:44;;;;;;;6.30;4.30;;;8.30;44.10;;;;;;5001160;28;20565;-70
2021/04/28 00:20:12;;;;;;;7.90;4.53;;;8.20;44.10;;;;;;5008573;28;20022;-70
2021/04/28 00:22:39;;;;;;;9.82;4.35;;;8.20;44.30;;;;;;4999090;28;20030;-70
2021/04/28 00:25:07;;;;;;;7.07;4.38;;;8.20;44.40;;;;;;4988805;28;20102;-70
2021/04/28 00:27:33;;;;;;;7.75;4.55;;;8.10;44.40;;;;;;4998325;28;20053;-70
2021/04/28 00:29:58;;;;;;;6.38;4.03;;;8.10;44.50;;;;;;4985746;28;20026;-71
2021/04/28 00:32:24;;;;;;;8.73;4.22;;;8.10;44.50;;;;;;5003376;28;20133;-70
2021/04/28 00:34:50;;;;;;;6.72;4.78;;;8.10;44.60;;;;;;5007472;28;20032;-70
2021/04/28 00:37:15;;;;;;;8.18;4.70;;;8.00;44.60;;;;;;5007566;28;20037;-70
2021/04/28 00:39:41;;;;;;;6.88;4.15;;;8.00;44.80;;;;;;4998493;28;20494;-68
2021/04/28 00:42:07;;;;;;;10.02;4.65;;;8.00;44.80;;;;;;4976522;28;20054;-70
2021/04/28 00:44:33;;;;;;;7.78;4.53;;;8.00;44.90;;;;;;5005102;28;20513;-69
2021/04/28 00:46:59;;;;;;;11.25;4.65;;;8.00;45.00;;;;;;5000625;28;20080;-69
2021/04/28 00:49:24;;;;;;;8.88;4.35;;;7.90;45.10;;;;;;4978374;28;20431;-69
2021/04/28 00:51:50;;;;;;;7.25;4.18;;;7.90;45.20;;;;;;4998227;28;20044;-69
2021/04/28 00:54:16;;;;;;;8.23;4.18;;;7.80;45.20;;;;;;5009373;28;20057;-68
2021/04/28 00:56:42;;;;;;;7.50;4.25;;;7.80;45.30;;;;;;5003395;28;20030;-71
2021/04/28 00:59:12;;;;;;;8.57;4.65;;;7.70;45.40;;;;;;5007231;28;20044;-69
2021/04/28 01:01:37;;;;;;;7.15;4.45;;;7.70;45.70;;;;;;5003909;28;20026;-71
2021/04/28 01:04:05;;;;;;;9.05;4.50;;;7.60;45.70;;;;;;5008934;28;20096;-69
2021/04/28 01:06:31;;;;;;;6.55;4.30;;;7.60;45.80;;;;;;4987577;28;20038;-69
2021/04/28 01:08:57;;;;;;;10.25;5.10;;;7.50;45.70;;;;;;5008717;28;20033;-69
2021/04/28 01:11:24;;;;;;;7.25;4.90;;;7.40;45.90;;;;;;4999944;28;20025;-68
2021/04/28 01:13:50;;;;;;;8.80;4.68;;;7.40;46.10;;;;;;4999455;28;20034;-70
2021/04/28 01:16:16;;;;;;;7.60;4.95;;;7.30;46.30;;;;;;5009358;28;20036;-69
2021/04/28 01:18:42;;;;;;;6.20;4.53;;;7.30;46.40;;;;;;5006684;28;20463;-69
2021/04/28 01:21:07;;;;;;;7.63;4.68;;;7.30;46.50;;;;;;4985711;28;20026;-70
2021/04/28 01:23:33;;;;;;;8.95;4.50;;;7.30;46.60;;;;;;5018579;28;20489;-69
2021/04/28 01:25:59;;;;;;;7.68;4.72;;;7.30;47.30;;;;;;5007791;28;20034;-68
2021/04/28 01:28:25;;;;;;;9.57;4.82;;;7.30;46.80;;;;;;5000907;28;20079;-69
2021/04/28 01:30:56;;;;;;;6.30;4.38;;;7.30;46.90;;;;;;5010990;28;20038;-69
2021/04/28 01:33:44;;;;;;;6.22;4.43;;;7.30;47.00;;;;;;5005540;28;20025;-70
2021/04/28 01:36:16;;;;;;;7.50;4.32;;;7.30;47.30;;;;;;5003329;28;20100;-69
2021/04/28 01:38:45;;;;;;;7.90;5.05;;;7.30;47.10;;;;;;5003899;28;20117;-69
2021/04/28 01:41:11;;;;;;;6.88;4.40;;;7.30;46.90;;;;;;4999773;28;20030;-71
2021/04/28 01:43:37;;;;;;;7.28;4.32;;;7.30;47.00;;;;;;4998653;28;20026;-69
2021/04/28 01:46:03;;;;;;;10.18;4.63;;;7.30;47.10;;;;;;4977113;28;20482;-69
2021/04/28 01:48:30;;;;;;;7.05;3.88;;;7.30;47.20;;;;;;4999738;28;20072;-69
2021/04/28 01:50:57;;;;;;;8.35;5.05;;;7.30;47.90;;;;;;5004021;28;20027;-69
2021/04/28 01:53:24;;;;;;;7.15;4.25;;;7.30;47.50;;;;;;5008405;28;20068;-70
2021/04/28 01:55:52;;;;;;;5.35;4.18;;;7.20;47.60;;;;;;4999652;28;20022;-69
2021/04/28 01:58:18;;;;;;;6.82;4.28;;;7.20;47.70;;;;;;5004718;28;20081;-69
2021/04/28 02:00:44;;;;;;;9.82;4.70;;;7.20;47.80;;;;;;5003896;28;20105;-69
2021/04/28 02:03:10;;;;;;;7.80;4.55;;;7.20;47.80;;;;;;5005328;28;20164;-68
2021/04/28 02:05:36;;;;;;;8.85;4.65;;;7.20;47.90;;;;;;5008009;28;20072;-69
2021/04/28 02:08:01;;;;;;;6.78;4.75;;;7.10;47.90;;;;;;5004820;28;20033;-69
2021/04/28 02:10:27;;;;;;;7.95;4.78;;;7.10;47.90;;;;;;5006956;28;20030;-69
2021/04/28 02:12:53;;;;;;;8.02;4.90;;;7.10;48.00;;;;;;4988736;28;20030;-70
2021/04/28 02:15:20;;;;;;;9.57;5.25;;;7.00;48.00;;;;;;4982130;28;20451;-69
2021/04/28 02:17:52;;;;;;;8.27;5.30;;;6.90;48.10;;;;;;5001309;28;20101;-68
2021/04/28 02:20:18;;;;;;;12.90;4.57;;;6.80;48.20;;;;;;5005280;23;20034;-68
2021/04/28 02:22:44;;;;;;;7.32;5.03;;;6.60;48.10;;;;;;5044039;28;20040;-69
2021/04/28 02:25:10;;;;;;;9.95;4.78;;;6.50;48.30;;;;;;5047952;28;20029;-69
2021/04/28 02:27:40;;;;;;;7.60;5.10;;;6.50;48.40;;;;;;5017972;28;20034;-68
2021/04/28 02:30:09;;;;;;;6.25;4.80;;;6.40;48.50;;;;;;5011169;28;20032;-69
2021/04/28 02:32:35;;;;;;;8.57;4.45;;;6.30;48.80;;;;;;5028820;28;20030;-69
2021/04/28 02:35:02;;;;;;;8.35;4.97;;;6.20;48.80;;;;;;5028565;28;20079;-69
2021/04/28 02:37:29;;;;;;;8.57;4.85;;;6.10;49.00;;;;;;5028201;28;20029;-68
2021/04/28 02:40:08;;;;;;;8.43;5.38;;;6.10;49.20;;;;;;5023215;28;20034;-69
2021/04/28 02:42:34;;;;;;;7.38;5.10;;;6.10;49.70;;;;;;5007093;28;20458;-68
2021/04/28 02:45:03;;;;;;;8.88;5.03;;;6.10;49.30;;;;;;5003288;28;20044;-72
2021/04/28 02:47:32;;;;;;;7.07;5.07;;;6.10;49.50;;;;;;5030005;28;20029;-69
2021/04/28 02:49:58;;;;;;;9.50;5.30;;;6.00;49.50;;;;;;5009711;28;20068;-69
2021/04/28 02:52:28;;;;;;;10.50;5.03;;;6.00;49.50;;;;;;5024604;28;20091;-69
2021/04/28 02:54:54;;;;;;;9.63;5.20;;;6.00;49.60;;;;;;5018264;28;20084;-70
2021/04/28 02:57:21;;;;;;;7.18;4.70;;;6.10;49.60;;;;;;5027980;28;20053;-69
2021/04/28 02:59:50;;;;;;;7.80;5.00;;;6.00;49.70;;;;;;5027518;28;20021;-70
2021/04/28 03:02:16;;;;;;;7.43;4.82;;;6.10;49.80;;;;;;5027585;28;20135;-69
2021/04/28 03:04:42;;;;;;;10.13;4.85;;;6.10;49.80;;;;;;5023804;28;20025;-69
2021/04/28 03:07:12;;;;;;;8.75;5.20;;;6.10;50.00;;;;;;5028205;28;20033;-69
2021/04/28 03:09:40;;;;;;;8.70;5.43;;;6.20;50.20;;;;;;5026550;28;20026;-69
2021/04/28 03:12:06;;;;;;;8.07;4.93;;;6.20;50.20;;;;;;5011598;28;20030;-69
2021/04/28 03:14:31;;;;;;;8.50;4.97;;;6.20;50.20;;;;;;5009113;28;20025;-69
2021/04/28 03:16:57;;;;;;;9.80;5.65;;;6.30;50.30;;;;;;5028631;28;20347;-69
2021/04/28 03:19:23;;;;;;;7.47;4.88;;;6.20;50.20;;;;;;5020624;28;20469;-69
2021/04/28 03:21:50;;;;;;;10.27;5.38;;;6.30;50.20;;;;;;5005599;28;20029;-69
2021/04/28 03:24:17;;;;;;;10.00;5.18;;;6.20;50.30;;;;;;5026690;28;20041;-68
2021/04/28 03:26:43;;;;;;;8.45;5.50;;;6.20;50.30;;;;;;5010320;28;20068;-69
2021/04/28 03:29:08;;;;;;;8.77;5.05;;;6.20;50.40;;;;;;5008771;28;20053;-69
2021/04/28 03:31:35;;;;;;;7.78;5.00;;;6.20;50.50;;;;;;5029283;28;20040;-69
2021/04/28 03:34:01;;;;;;;7.18;4.97;;;6.20;50.60;;;;;;5025763;28;20044;-69
2021/04/28 03:36:26;;;;;;;9.18;5.57;;;6.20;50.60;;;;;;5027488;28;20148;-68
2021/04/28 03:38:52;;;;;;;9.90;5.47;;;6.20;50.70;;;;;;5027175;28;20512;-69
2021/04/28 03:41:18;;;;;;;9.85;5.60;;;6.30;51.30;;;;;;5008548;28;20018;-69
2021/04/28 03:43:44;;;;;;;9.20;5.35;;;6.20;50.80;;;;;;5008491;28;20385;-68
2021/04/28 03:46:10;;;;;;;9.07;4.82;;;6.20;50.90;;;;;;5027080;28;20033;-68
2021/04/28 03:48:37;;;;;;;9.68;5.45;;;6.20;50.90;;;;;;5027520;28;20037;-69
2021/04/28 03:51:03;;;;;;;9.18;5.35;;;6.20;51.10;;;;;;5026870;28;20176;-69
2021/04/28 03:53:29;;;;;;;7.68;5.32;;;6.20;51.10;;;;;;5009313;28;20026;-68
2021/04/28 03:55:54;;;;;;;9.25;5.45;;;6.20;51.10;;;;;;5025469;28;20037;-69
2021/04/28 03:58:20;;;;;;;7.38;5.22;;;6.20;51.10;;;;;;5000225;28;20172;-69
2021/04/28 04:00:46;;;;;;;8.00;5.07;;;6.20;51.10;;;;;;5007300;28;20037;-69
2021/04/28 04:03:11;;;;;;;7.72;5.90;;;6.10;51.10;;;;;;5030793;28;20076;-69
2021/04/28 04:05:37;;;;;;;10.40;5.55;;;6.10;51.20;;;;;;5014954;28;20501;-69
2021/04/28 04:08:02;;;;;;;8.77;5.80;;;6.10;51.30;;;;;;5026967;28;20048;-69
2021/04/28 04:10:28;;;;;;;12.75;5.65;;;6.00;51.40;;;;;;5029425;28;20095;-69
2021/04/28 04:12:54;;;;;;;8.93;5.25;;;6.00;51.50;;;;;;5012487;28;20120;-69
2021/04/28 04:15:20;;;;;;;9.27;5.93;;;6.00;51.70;;;;;;5016550;28;20382;-69
2021/04/28 04:17:45;;;;;;;8.02;5.65;;;6.00;51.80;;;;;;5014927;28;20030;-70
2021/04/28 04:20:11;;;;;;;11.98;5.55;;;6.00;51.80;;;;;;5030025;28;20033;-69
2021/04/28 04:22:37;;;;;;;9.57;5.53;;;6.00;51.90;;;;;;5031189;28;20108;-69
2021/04/28 04:25:05;;;;;;;16.17;5.97;;;6.00;52.00;;;;;;5031960;28;20113;-70
2021/04/28 04:27:31;;;;;;;9.80;6.00;;;6.00;52.10;;;;;;5030571;28;20504;-70
2021/04/28 04:29:57;;;;;;;11.10;5.85;;;5.90;52.00;;;;;;5030855;28;20477;-70
2021/04/28 04:32:23;;;;;;;12.85;6.22;;;5.90;52.20;;;;;;5012256;28;20041;-69
2021/04/28 04:34:48;;;;;;;11.48;6.25;;;5.90;52.30;;;;;;5014522;28;20029;-69
2021/04/28 04:37:15;;;;;;;12.25;6.15;;;5.80;52.30;;;;;;5015116;28;20078;-69
2021/04/28 04:39:40;;;;;;;11.88;5.78;;;5.80;52.40;;;;;;5027511;28;20033;-68
2021/04/28 04:42:08;;;;;;;10.32;6.03;;;5.80;52.60;;;;;;5029502;28;20375;-69
2021/04/28 04:44:34;;;;;;;9.63;6.18;;;5.80;52.70;;;;;;5029135;28;20021;-70
2021/04/28 04:46:59;;;;;;;10.73;5.78;;;5.80;52.90;;;;;;5030194;28;20409;-69
2021/04/28 04:49:25;;;;;;;13.43;6.75;;;5.90;53.10;;;;;;5031731;28;20036;-70
2021/04/28 04:51:50;;;;;;;10.75;6.28;;;6.00;53.30;;;;;;5027126;28;20036;-69
2021/04/28 04:54:16;;;;;;;16.20;7.03;;;6.00;53.30;;;;;;5011185;28;20048;-69
2021/04/28 04:56:42;;;;;;;11.50;6.70;;;6.10;53.40;;;;;;5003823;28;20029;-69
2021/04/28 04:59:08;;;;;;;12.43;6.63;;;6.20;53.50;;;;;;5029934;28;20025;-70
2021/04/28 05:01:33;;;;;;;12.57;7.32;;;6.30;53.50;;;;;;5007335;28;20018;-69
2021/04/28 05:03:59;;;;;;;11.75;6.38;;;6.40;53.60;;;;;;5024510;28;20026;-70
2021/04/28 05:06:24;;;;;;;9.32;6.18;;;6.50;53.70;;;;;;5014704;28;20029;-69
2021/04/28 05:08:50;;;;;;;10.85;6.60;;;6.50;53.70;;;;;;5031762;28;20036;-70
2021/04/28 05:11:16;;;;;;;9.32;6.38;;;6.60;53.70;;;;;;5032495;28;20040;-68
2021/04/28 05:13:42;;;;;;;9.55;5.78;;;6.70;53.80;;;;;;5023904;28;20107;-68
2021/04/28 05:16:08;;;;;;;10.43;6.60;;;6.80;53.90;;;;;;5029759;28;20481;-68
2021/04/28 05:18:34;;;;;;;9.93;6.80;;;6.90;54.00;;;;;;5024594;28;20132;-67
2021/04/28 05:20:59;;;;;;;13.68;6.45;;;7.00;54.10;;;;;;5013207;28;20124;-68
2021/04/28 05:23:25;;;;;;;10.55;5.97;;;7.10;54.10;;;;;;5012178;28;20285;-68
2021/04/28 05:25:50;;;;;;;9.30;6.40;;;7.20;54.00;;;;;;5005477;28;20033;-68
2021/04/28 05:28:16;;;;;;;9.52;6.05;;;7.30;54.10;;;;;;5023893;28;20105;-68
2021/04/28 05:30:42;;;;;;;13.00;6.68;;;7.40;54.10;;;;;;5013250;28;20030;-68
2021/04/28 05:33:07;;;;;;;9.68;6.10;;;7.50;54.10;;;;;;5012664;28;20027;-68
2021/04/28 05:35:34;;;;;;;9.57;6.30;;;7.60;54.20;;;;;;5027106;28;20068;-69
2021/04/28 05:37:59;;;;;;;8.38;5.82;;;7.70;54.20;;;;;;5030491;28;20026;-68
2021/04/28 05:40:25;;;;;;;13.95;6.50;;;7.80;54.20;;;;;;5026208;28;20041;-67
2021/04/28 05:42:51;;;;;;;9.27;6.38;;;7.90;54.30;;;;;;5029517;28;20029;-69
2021/04/28 05:45:17;;;;;;;10.40;6.38;;;8.00;54.40;;;;;;5011357;28;20441;-67
2021/04/28 05:47:43;;;;;;;11.48;6.82;;;8.10;54.40;;;;;;5031074;28;20056;-67
2021/04/28 05:50:13;;;;;;;13.27;7.07;;;8.20;54.40;;;;;;5013994;28;20032;-67
2021/04/28 05:52:38;;;;;;;10.93;6.53;;;8.40;54.50;;;;;;5012336;28;20442;-67
2021/04/28 05:55:06;;;;;;;13.18;6.50;;;8.40;54.30;;;;;;5030434;28;20029;-67
2021/04/28 05:57:33;;;;;;;9.88;6.65;;;8.50;54.40;;;;;;5012669;28;20020;-67
2021/04/28 06:00:00;;;;;;;11.32;6.45;;;8.60;54.50;;;;;;5030585;28;20045;-68
2021/04/28 06:02:26;;;;;;;9.25;6.47;;;8.80;54.60;;;;;;5027895;28;20424;-67
2021/04/28 06:04:52;;;;;;;14.05;6.97;;;8.90;54.40;;;;;;5026273;28;20480;-67
2021/04/28 06:07:18;;;;;;;13.27;6.65;;;9.00;54.30;;;;;;5024940;28;20434;-67
2021/04/28 06:09:44;;;;;;;9.63;6.40;;;9.10;54.30;;;;;;5019720;28;20113;-68
2021/04/28 06:12:09;;;;;;;11.95;7.25;;;9.20;54.20;;;;;;5029661;28;20034;-67
2021/04/28 06:14:35;;;;;;;11.45;6.68;;;9.30;54.30;;;;;;5030363;28;20446;-68
2021/04/28 06:17:05;;;;;;;13.95;7.30;;;9.50;54.30;;;;;;5029519;28;20068;-67
2021/04/28 06:19:31;;;;;;;11.25;6.72;;;9.70;54.30;;;;;;5005127;28;20056;-71
2021/04/28 06:21:56;;;;;;;11.85;6.82;;;9.80;54.30;;;;;;5023675;28;20033;-66
2021/04/28 06:24:22;;;;;;;9.43;6.63;;;10.00;54.20;;;;;;5005727;28;20021;-67
2021/04/28 06:26:47;;;;;;;10.48;6.82;;;10.10;54.10;;;;;;5026089;28;20033;-67
2021/04/28 06:29:13;;;;;;;10.98;7.10;;;10.20;54.00;;;;;;5030959;28;20393;-67
2021/04/28 06:31:39;;;;;;;10.45;6.57;;;10.30;53.90;;;;;;5030608;28;20033;-68
2021/04/28 06:34:04;;;;;;;14.13;7.25;;;10.50;54.00;;;;;;5028964;28;20109;-68
2021/04/28 06:36:30;;;;;;;12.45;6.50;;;10.50;53.70;;;;;;5027824;28;20033;-68
2021/04/28 06:38:55;;;;;;;11.68;7.18;;;10.70;53.70;;;;;;5022251;28;20433;-67
2021/04/28 06:41:21;;;;;;;9.40;6.00;;;10.80;53.70;;;;;;5030258;28;20028;-68
2021/04/28 06:43:46;;;;;;;12.30;7.28;;;10.90;53.60;;;;;;5028820;28;20391;-68
2021/04/28 06:46:12;;;;;;;10.30;7.30;;;11.10;53.60;;;;;;5011511;28;20068;-69
2021/04/28 06:48:39;;;;;;;10.75;6.82;;;11.30;53.60;;;;;;5029530;28;20033;-68
2021/04/28 06:51:04;;;;;;;12.63;6.63;;;11.50;53.50;;;;;;5028167;28;20159;-68
2021/04/28 06:53:30;;;;;;;9.68;6.38;;;11.80;53.30;;;;;;5007745;28;20521;-68
2021/04/28 06:55:56;;;;;;;11.00;6.55;;;12.00;53.10;;;;;;5019883;28;20025;-68
2021/04/28 06:58:22;;;;;;;10.20;7.00;;;12.30;52.80;;;;;;5026211;28;20470;-68
2021/04/28 07:00:50;;;;;;;9.85;6.85;;;12.60;52.60;;;;;;5027840;28;20036;-69
2021/04/28 07:03:16;;;;;;;10.05;6.35;;;12.80;52.40;;;;;;4999693;28;20029;-69
2021/04/28 07:05:42;;;;;;;13.65;6.55;;;13.00;52.20;;;;;;5006034;28;20025;-69
2021/04/28 07:08:08;;;;;;;10.48;7.13;;;13.40;52.00;;;;;;5012595;28;20120;-70
2021/04/28 07:10:34;;;;;;;13.90;6.93;;;13.60;51.50;;;;;;5012328;28;20433;-70
2021/04/28 07:13:00;;;;;;;12.30;6.95;;;13.70;51.30;;;;;;5012138;28;20060;-70
2021/04/28 07:15:25;;;;;;;19.33;7.05;;;14.00;51.10;;;;;;5029768;28;20029;-70
2021/04/28 07:17:52;;;;;;;14.57;7.15;;;14.10;50.90;;;;;;5012141;28;20036;-70
2021/04/28 07:20:18;;;;;;;15.68;7.22;;;14.30;50.80;;;;;;5027902;28;20433;-70
2021/04/28 07:22:44;;;;;;;13.38;6.78;;;14.50;50.80;;;;;;5019159;28;20025;-70
2021/04/28 07:25:11;;;;;;;11.60;6.50;;;14.70;50.60;;;;;;5027546;28;20068;-69
2021/04/28 07:27:37;;;;;;;10.30;6.80;;;15.20;50.20;;;;;;5019029;28;20025;-70
2021/04/28 07:30:07;;;;;;;17.27;7.07;;;15.60;49.40;;;;;;5025319;28;20039;-71
2021/04/28 07:32:34;;;;;;;13.07;6.35;;;16.20;48.70;;;;;;5012110;28;20033;-69
2021/04/28 07:34:59;;;;;;;9.38;6.00;;;16.80;47.90;;;;;;5029033;28;20039;-68
2021/04/28 07:37:25;;;;;;;12.77;6.25;;;17.40;46.50;;;;;;5029123;28;20767;-69
2021/04/28 07:39:51;;;;;;;12.05;6.45;;;18.00;45.50;;;;;;5029111;28;20033;-69
2021/04/28 07:42:16;;;;;;;11.20;6.07;;;18.40;44.60;;;;;;5024061;28;20386;-69
2021/04/28 07:44:42;;;;;;;10.23;6.82;;;18.90;44.00;;;;;;5009611;28;20025;-69
2021/04/28 07:47:07;;;;;;;10.13;6.07;;;19.30;42.70;;;;;;5007949;28;20652;-69
2021/04/28 07:49:33;;;;;;;10.93;6.10;;;19.70;42.10;;;;;;5029219;28;20030;-70
2021/04/28 07:51:59;;;;;;;7.95;5.53;;;20.10;41.50;;;;;;5003224;28;20073;-69
2021/04/28 07:54:27;;;;;;;8.20;5.90;;;20.50;40.70;;;;;;5021191;28;20036;-69
2021/04/28 07:56:52;;;;;;;10.07;6.28;;;20.90;40.20;;;;;;5022294;28;20033;-69
2021/04/28 07:59:18;;;;;;;12.98;6.30;;;21.30;40.10;;;;;;5022061;28;20024;-69
2021/04/28 08:01:47;;;;;;;11.18;5.88;;;21.90;39.20;;;;;;5025917;28;20112;-69
2021/04/28 08:04:12;;;;;;;11.38;5.60;;;22.30;38.30;;;;;;5011032;28;20036;-70
2021/04/28 08:06:38;;;;;;;7.90;5.47;;;22.50;37.40;;;;;;5029719;28;20036;-70
2021/04/28 08:09:05;;;;;;;6.45;5.35;;;22.70;36.80;;;;;;5019659;28;20098;-69
2021/04/28 08:11:31;;;;;;;6.63;5.30;;;22.70;36.30;;;;;;5029636;28;20029;-69
2021/04/28 08:13:57;;;;;;;9.13;5.70;;;23.00;36.30;;;;;;5009608;28;20045;-69
2021/04/28 08:16:22;;;;;;;10.27;5.18;;;23.30;35.70;;;;;;5029211;28;20079;-69
2021/04/28 08:18:49;;;;;;;7.10;5.53;;;23.40;35.20;;;;;;5024624;28;20030;-75
2021/04/28 08:21:15;;;;;;;9.23;5.30;;;23.80;35.00;;;;;;5033858;23;20448;-71
2021/04/28 08:23:42;;;;;;;8.73;5.50;;;24.00;34.40;;;;;;5000313;28;20026;-71
2021/04/28 08:26:12;;;;;;;9.75;6.10;;;24.20;34.30;;;;;;5005618;28;20028;-72
2021/04/28 08:28:43;;;;;;;11.10;5.95;;;24.50;33.70;;;;;;5010200;28;20053;-71
2021/04/28 08:31:14;;;;;;;12.27;5.65;;;24.80;33.00;;;;;;5012512;28;20030;-71
2021/04/28 08:33:41;;;;;;;9.53;5.73;;;25.00;32.80;;;;;;5009566;28;20356;-71
2021/04/28 08:36:07;;;;;;;9.85;5.75;;;25.30;33.10;;;;;;4993762;28;20317;-71
2021/04/28 08:38:34;;;;;;;13.93;6.30;;;25.60;32.60;;;;;;5002337;28;20061;-71
2021/04/28 08:41:00;;;;;;;8.45;5.25;;;25.70;32.00;;;;;;5011385;28;20038;-71
2021/04/28 08:43:27;;;;;;;9.13;5.40;;;25.90;31.80;;;;;;5008061;28;20026;-71
2021/04/28 08:45:53;;;;;;;7.30;5.28;;;26.00;31.70;;;;;;4990029;28;20033;-71
2021/04/28 08:48:19;;;;;;;7.43;5.45;;;26.20;32.20;;;;;;5002868;28;20038;-71
2021/04/28 08:50:47;;;;;;;10.40;5.32;;;26.50;31.40;;;;;;5010247;28;20033;-71
2021/04/28 08:53:14;;;;;;;11.57;6.13;;;26.80;31.30;;;;;;4994871;28;20058;-71
2021/04/28 08:55:40;;;;;;;9.48;5.82;;;27.00;30.70;;;;;;5009656;28;20033;-71
2021/04/28 08:58:06;;;;;;;7.63;5.45;;;27.00;30.60;;;;;;5007448;28;20062;-71
2021/04/28 09:00:33;;;;;;;7.90;5.28;;;27.00;30.70;;;;;;4995194;28;20026;-71
2021/04/28 09:03:00;;;;;;;9.88;5.68;;;27.10;30.70;;;;;;4995087;28;20023;-71
2021/04/28 09:05:27;;;;;;;11.25;5.80;;;27.10;30.20;;;;;;5006539;28;20125;-72
2021/04/28 09:07:53;;;;;;;8.57;5.53;;;27.10;30.50;;;;;;5013490;28;20052;-71
2021/04/28 09:10:24;;;;;;;8.52;5.25;;;27.20;30.50;;;;;;5014191;28;20065;-72
2021/04/28 09:13:02;;;;;;;11.25;5.63;;;27.10;30.30;;;;;;5009749;28;20121;-72
2021/04/28 09:15:38;;;;;;;10.50;5.70;;;27.40;31.00;;;;;;5007868;28;20038;-72
2021/04/28 09:18:07;;;;;;;6.65;5.60;;;27.80;30.70;;;;;;5012555;28;20029;-72
2021/04/28 09:20:36;;;;;;;8.27;5.25;;;28.00;30.50;;;;;;5011020;28;20107;-72
2021/04/28 09:23:14;;;;;;;6.40;5.15;;;28.20;30.20;;;;;;5022120;28;20026;-72
2021/04/28 09:25:51;;;;;;;8.57;5.05;;;28.40;30.00;;;;;;5024965;28;20401;-71
2021/04/28 09:28:34;;;;;;;8.85;5.10;;;28.50;30.00;;;;;;5029715;28;20033;-71
2021/04/28 09:31:05;;;;;;;9.60;4.70;;;28.50;29.90;;;;;;5032420;28;20100;-71
2021/04/28 09:33:52;;;;;;;9.18;5.53;;;28.60;30.00;;;;;;5031609;28;20030;-71
2021/04/28 09:36:33;;;;;;;9.82;5.65;;;28.80;29.90;;;;;;5029766;28;20045;-72
2021/04/28 09:39:07;;;;;;;7.75;5.53;;;28.90;29.50;;;;;;5024733;28;20022;-72
2021/04/28 09:41:42;;;;;;;7.00;4.78;;;28.90;29.40;;;;;;5017148;28;20080;-72
2021/04/28 09:44:16;;;;;;;8.82;5.30;;;28.90;29.30;;;;;;5014368;28;20092;-72
2021/04/28 09:46:55;;;;;;;9.65;5.57;;;29.00;29.20;;;;;;5031949;28;20113;-71
2021/04/28 09:49:21;;;;;;;9.60;5.35;;;29.10;29.10;;;;;;5031076;28;20025;-71
2021/04/28 09:51:57;;;;;;;7.70;5.70;;;29.00;29.00;;;;;;5026537;28;20538;-69
2021/04/28 09:54:31;;;;;;;11.82;6.38;;;28.90;29.00;;;;;;5021193;28;20025;-69
2021/04/28 09:56:58;;;;;;;10.23;5.75;;;28.80;29.00;;;;;;5031662;28;20033;-71
2021/04/28 09:59:43;;;;;;;7.68;5.72;;;28.70;29.50;;;;;;5013373;28;20030;-72
2021/04/28 10:02:14;;;;;;;9.70;5.10;;;28.50;29.00;;;;;;5042261;28;20037;-71
2021/04/28 10:04:40;;;;;;;8.80;5.07;;;28.50;28.90;;;;;;5014665;28;20467;-72
2021/04/28 10:07:05;;;;;;;8.52;5.18;;;28.30;29.00;;;;;;5027303;28;20047;-72
2021/04/28 10:09:34;;;;;;;7.05;5.85;;;28.00;28.80;;;;;;5025536;28;20022;-72
2021/04/28 10:12:14;;;;;;;11.13;6.10;;;27.70;28.70;;;;;;5010557;28;20014;-72
2021/04/28 10:14:41;;;;;;;5.55;4.85;;;27.50;29.20;;;;;;5028968;28;20021;-69
2021/04/28 10:17:08;;;;;;;6.68;5.00;;;27.50;29.50;;;;;;5028016;28;20044;-71
2021/04/28 10:19:37;;;;;;;8.23;5.53;;;27.40;29.40;;;;;;5028432;28;20021;-71
2021/04/28 10:22:09;;;;;;;10.38;5.82;;;27.40;29.40;;;;;;5023285;28;20025;-72
2021/04/28 10:24:37;;;;;;;11.52;5.90;;;27.20;28.80;;;;;;5022960;28;20401;-73
2021/04/28 10:27:03;;;;;;;11.30;6.07;;;26.70;28.80;;;;;;5029615;28;20504;-70
2021/04/28 10:29:30;;;;;;;8.40;5.50;;;26.30;29.10;;;;;;5030220;28;20029;-70
2021/04/28 10:31:56;;;;;;;11.73;5.38;;;26.00;29.70;;;;;;5029634;28;20462;-72
2021/04/28 10:34:37;;;;;;;10.38;5.85;;;26.00;29.50;;;;;;5029829;28;20029;-72
2021/04/28 10:37:06;;;;;;;8.60;5.95;;;25.90;29.70;;;;;;5027617;28;20481;-69
2021/04/28 10:39:32;;;;;;;7.88;5.80;;;25.70;29.40;;;;;;5029343;28;20040;-69
2021/04/28 10:41:58;;;;;;;9.32;6.05;;;25.60;29.60;;;;;;5018738;28;20485;-70
2021/04/28 10:44:33;;;;;;;8.73;5.70;;;25.60;29.60;;;;;;5027450;28;20040;-70
2021/04/28 10:47:20;;;;;;;11.15;5.80;;;25.50;29.30;;;;;;5030037;28;20033;-70
2021/04/28 10:50:04;;;;;;;10.60;5.80;;;25.40;29.30;;;;;;5013919;28;20029;-70
2021/04/28 10:52:35;;;;;;;7.93;5.43;;;25.10;29.50;;;;;;5038808;28;20083;-69
2021/04/28 10:55:01;;;;;;;8.68;5.75;;;25.00;29.60;;;;;;5023104;28;20386;-70
2021/04/28 10:57:41;;;;;;;8.43;5.95;;;25.10;29.80;;;;;;5023928;28;20021;-69
2021/04/28 11:00:18;;;;;;;12.18;5.60;;;25.00;29.40;;;;;;5030452;28;20537;-70
2021/04/28 11:02:44;;;;;;;10.85;5.72;;;24.80;29.40;;;;;;5036570;28;20057;-70
2021/04/28 11:05:20;;;;;;;11.93;6.40;;;24.50;29.60;;;;;;5029095;28;20493;-69
2021/04/28 11:07:55;;;;;;;8.63;5.35;;;24.40;29.70;;;;;;5029680;28;20040;-69
2021/04/28 11:10:30;;;;;;;9.55;5.90;;;24.20;30.00;;;;;;5023286;28;20029;-69
2021/04/28 11:13:03;;;;;;;7.93;5.55;;;24.10;30.00;;;;;;5017362;28;20052;-71
2021/04/28 11:15:58;;;;;;;9.10;4.80;;;23.90;29.90;;;;;;5027849;28;20022;-70
2021/04/28 11:18:37;;;;;;;8.63;5.53;;;23.80;30.00;;;;;;5009695;28;20037;-70
2021/04/28 11:21:32;;;;;;;7.72;4.90;;;23.60;30.00;;;;;;5028092;28;20051;-70
2021/04/28 11:24:08;;;;;;;8.80;4.97;;;23.80;30.40;;;;;;5005348;28;20398;-70
2021/04/28 11:26:39;;;;;;;6.45;4.82;;;23.80;30.30;;;;;;5023652;28;20025;-70
2021/04/28 11:29:07;;;;;;;6.63;4.50;;;23.80;30.30;;;;;;5019316;28;20021;-70
2021/04/28 11:31:54;;;;;;;8.75;4.93;;;23.80;30.40;;;;;;5020330;28;20268;-72
2021/04/28 11:34:34;;;;;;;8.45;4.70;;;24.00;30.00;;;;;;5029299;28;20676;-69
2021/04/28 11:37:00;;;;;;;7.65;4.38;;;23.90;30.00;;;;;;5029750;28;20060;-70
2021/04/28 11:39:39;;;;;;;7.93;4.63;;;24.00;30.70;;;;;;5029699;28;20078;-69
2021/04/28 11:42:17;;;;;;;5.47;3.95;;;24.20;30.40;;;;;;5027724;28;20022;-70
2021/04/28 11:44:47;;;;;;;8.93;4.03;;;24.40;30.30;;;;;;5028825;28;20034;-70
2021/04/28 11:47:15;;;;;;;5.68;3.63;;;24.60;29.90;;;;;;5028572;28;20030;-69
2021/04/28 11:49:51;;;;;;;6.85;3.80;;;24.40;29.50;;;;;;5028788;28;20022;-69
2021/04/28 11:52:19;;;;;;;8.57;4.13;;;24.20;29.50;;;;;;5025152;28;20382;-70
2021/04/28 11:54:51;;;;;;;10.93;4.28;;;23.90;29.30;;;;;;5016656;28;20021;-70
2021/04/28 11:57:30;;;;;;;7.95;4.00;;;23.80;29.30;;;;;;5019609;28;20026;-68
2021/04/28 12:00:07;;;;;;;6.80;4.13;;;23.80;30.00;;;;;;5028591;28;20542;-71
2021/04/28 12:02:33;;;;;;;5.30;3.65;;;24.00;29.70;;;;;;5030439;28;20080;-70
2021/04/28 12:04:59;;;;;;;5.93;3.50;;;24.10;29.30;;;;;;5027104;28;20030;-70
2021/04/28 12:07:24;;;;;;;6.75;3.40;;;24.20;29.70;;;;;;5027207;28;20037;-71
2021/04/28 12:09:52;;;;;;;3.92;2.90;;;24.30;29.10;;;;;;5029253;28;20064;-70
2021/04/28 12:12:24;;;;;;;5.75;3.33;;;24.20;28.60;;;;;;5028473;28;20041;-70
2021/04/28 12:15:13;;;;;;;7.38;4.20;;;24.20;28.60;;;;;;5024846;28;20057;-70
2021/04/28 12:17:44;;;;;;;7.03;3.47;;;24.20;28.00;;;;;;5024975;28;20128;-69
2021/04/28 12:20:14;;;;;;;7.57;3.80;;;24.10;28.30;;;;;;5027274;28;20080;-70
2021/04/28 12:22:40;;;;;;;7.43;2.92;;;24.20;28.30;;;;;;5029279;28;20136;-70
2021/04/28 12:25:08;;;;;;;7.30;3.67;;;24.30;28.80;;;;;;5031074;28;20033;-70
2021/04/28 12:27:35;;;;;;;5.05;3.30;;;24.40;28.40;;;;;;5029584;28;20018;-70
2021/04/28 12:30:10;;;;;;;6.72;3.53;;;24.40;28.10;;;;;;5024674;28;20112;-69
2021/04/28 12:32:41;;;;;;;5.10;3.15;;;24.10;27.50;;;;;;5029902;28;20033;-69
2021/04/28 12:35:21;;;;;;;4.83;2.97;;;23.80;27.20;;;;;;5019733;28;20158;-69
2021/04/28 12:38:06;;;;;;;8.60;5.05;;;23.70;27.30;;;;;;5032654;28;20104;-70
2021/04/28 12:40:38;;;;;;;6.75;3.30;;;23.60;27.50;;;;;;5033631;28;20413;-70
2021/04/28 12:43:07;;;;;;;;;;;23.70;27.70;;;;;;5032784;28;20195;-69
2021/04/28 12:45:32;;;;;;;4.68;2.75;;;23.80;28.20;;;;;;5029591;28;19943;-70
2021/04/28 12:48:09;;;;;;;6.40;3.30;;;23.90;28.00;;;;;;5019661;28;20100;-70
2021/04/28 12:50:36;;;;;;;6.80;3.72;;;23.90;27.50;;;;;;5031562;28;20022;-70
2021/04/28 12:53:10;;;;;;;5.00;3.75;;;24.00;27.60;;;;;;5014062;28;20030;-70